Coralville, Iowa
Current Conditions -  °F | °C
As of 2:52 AM on Wednesday 28 Jan 2015 (Local Time) from KIOW Reporting Station
Haze Haze  
Wind Chill: 16°   Ceiling: 700
Heat Index: 27°   Visibility: 5mi
Dew Point: 24°   Wind: 13mph
Humidity: 89%   Direction: 120°ESE
Pressure: 30.2"   Gusts: NA
Location:  41.68°N, 91.59°W
Report Text: KIOW 280852Z AUTO 12011KT 5SM BR OVC007 M03/M04 A3020 RMK AO2 SLP233 T10281044 58011
Loading
Personal Weather Stations






























Interactive Weather Map New forecast layout! Learn more

10-Day Weather Forecast

Advertisements
Track Severe Weather on mobile